createdAt,value
2022-10-31T00:00:08.922Z,100048.02
2022-10-31T00:02:59.254Z,100051.29
2022-10-31T00:05:47.018Z,100046.94
2022-10-31T00:08:25.012Z,100047.53
2022-10-31T00:10:53.080Z,100052.48
2022-10-31T00:15:47.468Z,100052.81
2022-10-31T00:18:22.617Z,100053.45
2022-10-31T00:21:08.687Z,100055.92
2022-10-31T00:23:43.234Z,100052.16
2022-10-31T00:26:10.669Z,100055.56
2022-10-31T00:28:44.751Z,100053.81
2022-10-31T00:31:24.117Z,100055.75
2022-10-31T00:34:00.297Z,100054.80
2022-10-31T00:36:38.423Z,100056.10
2022-10-31T00:39:36.870Z,100053.40
2022-10-31T00:42:32.188Z,100055.41
2022-10-31T00:45:17.862Z,100056.98
2022-10-31T00:47:46.541Z,100056.84
2022-10-31T00:50:23.112Z,100059.95
2022-10-31T00:56:29.377Z,100059.82
2022-10-31T00:59:16.859Z,100055.95
2022-10-31T01:01:57.312Z,100055.63
2022-10-31T01:04:35.198Z,100054.20
2022-10-31T01:07:19.742Z,100054.57
2022-10-31T01:09:50.934Z,100052.02
2022-10-31T01:12:25.318Z,100053.14
2022-10-31T01:15:40.729Z,100051.25
2022-10-31T01:18:18.311Z,100055.84
2022-10-31T01:24:12.984Z,100058.39
2022-10-31T01:26:50.241Z,100057.16
2022-10-31T01:29:38.275Z,100061.17
2022-10-31T01:32:15.739Z,100059.65
2022-10-31T01:34:45.767Z,100057.16
2022-10-31T01:38:36.248Z,100056.71
2022-10-31T01:41:40.776Z,100058.66
2022-10-31T01:44:21.751Z,100054.75
2022-10-31T01:50:49.236Z,100054.58
2022-10-31T01:53:51.994Z,100055.95
2022-10-31T01:57:14.350Z,100056.09
2022-10-31T02:00:09.387Z,100055.69
2022-10-31T02:05:47.671Z,100055.21
2022-10-31T02:08:45.275Z,100053.60
2022-10-31T02:11:38.407Z,100054.92
2022-10-31T02:14:40.586Z,100053.30
2022-10-31T02:18:13.400Z,100054.81
2022-10-31T02:31:11.095Z,100063.77
2022-10-31T02:33:54.734Z,100064.63
2022-10-31T02:36:43.246Z,100063.93
2022-10-31T02:39:47.631Z,100068.73
2022-10-31T02:46:42.778Z,100063.09
2022-10-31T02:50:27.414Z,100062.20
2022-10-31T02:53:25.411Z,100064.89
2022-10-31T02:56:17.085Z,100064.83
2022-10-31T02:58:54.540Z,100066.61
2022-10-31T03:01:48.804Z,100071.25
2022-10-31T03:04:54.192Z,100069.16
2022-10-31T03:08:02.546Z,100069.04
2022-10-31T03:14:54.704Z,100072.88
2022-10-31T03:18:01.579Z,100076.41
2022-10-31T03:20:49.503Z,100077.20
2022-10-31T03:23:21.158Z,100077.64
2022-10-31T03:26:11.209Z,100082.17
2022-10-31T03:29:10.113Z,100085.59
2022-10-31T03:32:20.408Z,100084.05
2022-10-31T03:35:07.976Z,100085.44
2022-10-31T03:41:45.261Z,100092.30
2022-10-31T03:44:52.411Z,100093.66
2022-10-31T03:47:56.873Z,100090.67
2022-10-31T03:55:02.149Z,100094.27
2022-10-31T03:57:50.972Z,100096.16
2022-10-31T04:00:44.980Z,100096.64
2022-10-31T04:03:55.300Z,100094.02
2022-10-31T04:11:06.123Z,100104.44
2022-10-31T04:14:15.799Z,100109.73
2022-10-31T04:20:00.814Z,100114.15
2022-10-31T04:22:48.419Z,100116.86
2022-10-31T04:25:29.844Z,100113.44
2022-10-31T04:28:04.811Z,100109.73
2022-10-31T04:34:42.028Z,100112.02
2022-10-31T04:37:46.029Z,100110.42
2022-10-31T04:44:26.308Z,100114.95
2022-10-31T04:50:31.248Z,100110.95
2022-10-31T04:53:09.714Z,100109.40
2022-10-31T04:56:08.396Z,100109.96
2022-10-31T04:58:48.005Z,100107.86
2022-10-31T05:01:20.281Z,100107.16
2022-10-31T05:03:56.278Z,100105.17
2022-10-31T05:06:34.631Z,100104.98
2022-10-31T05:09:36.044Z,100107.19
2022-10-31T05:12:52.713Z,100108.14
2022-10-31T05:15:29.971Z,100104.08
2022-10-31T05:18:04.020Z,100100.63
2022-10-31T05:20:57.815Z,100103.59
2022-10-31T05:23:29.860Z,100105.50
2022-10-31T05:26:20.423Z,100107.11
2022-10-31T05:32:22.553Z,100115.64
2022-10-31T05:35:45.551Z,100113.10
2022-10-31T05:38:33.691Z,100117.22
2022-10-31T05:41:14.237Z,100117.38
2022-10-31T05:44:12.420Z,100121.72
2022-10-31T05:46:52.682Z,100122.41
2022-10-31T05:49:45.900Z,100122.45
2022-10-31T05:52:21.218Z,100121.33
2022-10-31T05:55:05.902Z,100123.37
2022-10-31T05:57:45.464Z,100129.17
2022-10-31T06:03:26.401Z,100129.88
2022-10-31T06:06:46.703Z,100137.40
2022-10-31T06:09:15.036Z,100139.41
2022-10-31T06:12:10.381Z,100140.38
2022-10-31T06:15:09.272Z,100141.67
2022-10-31T06:17:38.560Z,100145.98
2022-10-31T06:20:08.234Z,100149.78
2022-10-31T06:22:35.553Z,100148.81
2022-10-31T06:25:02.984Z,100154.26
2022-10-31T06:27:30.124Z,100153.74
2022-10-31T06:29:56.878Z,100157.00
2022-10-31T06:32:23.635Z,100160.45
2022-10-31T06:34:51.588Z,100162.63
2022-10-31T06:37:18.319Z,100160.63
2022-10-31T06:39:45.126Z,100167.52
2022-10-31T06:42:11.957Z,100166.10
2022-10-31T06:44:39.182Z,100172.81
2022-10-31T06:47:06.159Z,100178.37
2022-10-31T06:49:32.817Z,100181.44
2022-10-31T06:51:59.486Z,100182.55
2022-10-31T06:54:26.903Z,100182.88
2022-10-31T06:56:53.601Z,100184.02
2022-10-31T06:59:20.267Z,100186.90
2022-10-31T07:01:47.068Z,100188.48
2022-10-31T07:04:14.595Z,100188.98
2022-10-31T07:06:41.715Z,100190.91
2022-10-31T07:09:08.473Z,100196.85
2022-10-31T07:11:35.166Z,100194.88
2022-10-31T07:14:02.419Z,100199.23
2022-10-31T07:16:32.806Z,100201.10
2022-10-31T07:19:02.319Z,100207.48
2022-10-31T07:21:32.021Z,100215.76
2022-10-31T07:23:58.950Z,100214.35
2022-10-31T07:26:26.786Z,100214.45
2022-10-31T07:28:53.623Z,100216.73
2022-10-31T07:31:20.866Z,100220.73
2022-10-31T07:33:48.045Z,100221.09
2022-10-31T07:36:14.948Z,100224.02
2022-10-31T07:38:41.809Z,100227.65
2022-10-31T07:41:09.249Z,100229.47
2022-10-31T07:43:36.030Z,100231.48
2022-10-31T07:46:02.843Z,100228.27
2022-10-31T07:48:29.974Z,100231.89
2022-10-31T07:50:56.779Z,100231.90
2022-10-31T07:53:23.836Z,100230.02
2022-10-31T07:55:51.453Z,100232.23
2022-10-31T07:58:18.332Z,100229.13
2022-10-31T08:00:49.989Z,100233.11
2022-10-31T08:03:19.956Z,100239.00
2022-10-31T08:05:47.059Z,100235.92
2022-10-31T08:08:17.525Z,100240.45
2022-10-31T08:10:44.786Z,100239.77
2022-10-31T08:18:03.002Z,100240.88
2022-10-31T08:20:30.319Z,100240.17
2022-10-31T08:23:02.095Z,100239.65
2022-10-31T08:25:33.857Z,100242.20
2022-10-31T08:28:04.698Z,100244.08
2022-10-31T08:30:34.505Z,100240.80
2022-10-31T08:33:06.632Z,100239.41
2022-10-31T08:35:33.984Z,100240.16
2022-10-31T08:38:01.970Z,100241.80
2022-10-31T08:40:32.266Z,100243.71
2022-10-31T08:43:08.069Z,100244.63
2022-10-31T08:45:35.316Z,100244.45
2022-10-31T08:48:05.488Z,100245.35
2022-10-31T08:50:36.410Z,100248.15
2022-10-31T08:53:09.806Z,100246.19
2022-10-31T08:55:45.246Z,100246.81
2022-10-31T08:58:24.445Z,100247.83
2022-10-31T09:00:53.784Z,100243.83
2022-10-31T09:03:23.779Z,100246.17
2022-10-31T09:05:51.653Z,100247.98
2022-10-31T09:08:18.715Z,100248.36
2022-10-31T09:10:45.885Z,100246.52
2022-10-31T09:13:15.495Z,100248.50
2022-10-31T09:15:44.474Z,100249.05
2022-10-31T09:18:12.880Z,100252.23
2022-10-31T09:20:41.185Z,100245.61
2022-10-31T09:23:11.764Z,100245.70
2022-10-31T09:25:39.820Z,100250.32
2022-10-31T09:28:09.571Z,100249.04
2022-10-31T09:30:42.873Z,100252.63
2022-10-31T09:33:12.084Z,100253.13
2022-10-31T09:35:40.044Z,100254.70
2022-10-31T09:38:11.092Z,100254.70
2022-10-31T09:40:43.504Z,100253.98
2022-10-31T09:43:33.094Z,100255.59
2022-10-31T09:46:09.353Z,100254.52
2022-10-31T09:48:38.939Z,100260.89
2022-10-31T09:51:30.343Z,100261.85
2022-10-31T09:54:03.017Z,100262.54
2022-10-31T09:56:35.397Z,100265.31
2022-10-31T09:59:05.799Z,100269.76
2022-10-31T10:01:48.964Z,100272.59
2022-10-31T10:04:24.863Z,100272.76
2022-10-31T10:06:58.880Z,100272.19
2022-10-31T10:09:27.743Z,100274.63
2022-10-31T10:12:17.130Z,100275.99
2022-10-31T10:15:06.052Z,100270.34
2022-10-31T10:17:48.099Z,100274.50
2022-10-31T10:20:24.801Z,100274.04
2022-10-31T10:23:07.947Z,100271.66
2022-10-31T10:25:40.201Z,100275.96
2022-10-31T10:28:29.608Z,100274.70
2022-10-31T10:30:59.336Z,100272.52
2022-10-31T10:33:32.781Z,100273.48
2022-10-31T10:36:03.233Z,100273.52
2022-10-31T10:38:47.078Z,100271.66
2022-10-31T10:41:20.766Z,100265.00
2022-10-31T10:44:02.216Z,100270.98
2022-10-31T10:47:15.918Z,100266.51
2022-10-31T10:49:51.731Z,100268.27
2022-10-31T10:53:00.179Z,100266.39
2022-10-31T10:55:57.466Z,100261.96
2022-10-31T10:58:24.275Z,100261.77
2022-10-31T11:00:57.111Z,100260.19
2022-10-31T11:03:24.212Z,100256.77
2022-10-31T11:05:55.138Z,100253.98
2022-10-31T11:08:29.953Z,100252.27
2022-10-31T11:11:02.426Z,100254.36
2022-10-31T11:13:31.268Z,100252.35
2022-10-31T11:16:05.048Z,100247.09
2022-10-31T11:18:40.128Z,100246.20
2022-10-31T11:21:24.705Z,100246.38
2022-10-31T11:24:11.159Z,100242.93
2022-10-31T11:26:39.957Z,100241.23
2022-10-31T11:29:22.348Z,100240.20
2022-10-31T11:31:54.088Z,100245.10
2022-10-31T11:34:48.077Z,100245.73
2022-10-31T11:37:26.736Z,100245.77
2022-10-31T11:39:58.810Z,100243.98
2022-10-31T11:42:29.677Z,100241.70
2022-10-31T11:44:57.571Z,100242.38
2022-10-31T11:47:30.500Z,100244.21
2022-10-31T11:49:58.180Z,100243.95
2022-10-31T11:52:44.512Z,100242.77
2022-10-31T11:55:12.028Z,100242.67
2022-10-31T11:57:51.744Z,100240.21
2022-10-31T12:00:39.582Z,100238.48
2022-10-31T12:03:25.587Z,100233.95
2022-10-31T12:06:10.175Z,100229.73
2022-10-31T12:08:55.076Z,100225.50
2022-10-31T12:11:43.655Z,100226.13
2022-10-31T12:14:24.406Z,100224.95
2022-10-31T12:17:16.539Z,100222.32
2022-10-31T12:20:19.732Z,100219.07
2022-10-31T12:23:05.509Z,100214.25
2022-10-31T12:25:49.870Z,100212.55
2022-10-31T12:28:26.500Z,100208.13
2022-10-31T12:31:16.818Z,100205.52
2022-10-31T12:33:51.060Z,100205.74
2022-10-31T12:36:33.123Z,100200.55
2022-10-31T12:39:26.444Z,100196.70
2022-10-31T12:42:08.952Z,100193.60
2022-10-31T12:45:09.936Z,100194.98
2022-10-31T12:47:52.005Z,100194.83
2022-10-31T12:50:57.962Z,100191.23
2022-10-31T12:53:48.343Z,100187.03
2022-10-31T12:56:34.205Z,100185.70
2022-10-31T12:59:20.192Z,100187.75
2022-10-31T13:01:54.315Z,100182.99
2022-10-31T13:04:41.946Z,100177.23
2022-10-31T13:07:19.433Z,100176.35
2022-10-31T13:10:15.745Z,100179.13
2022-10-31T13:12:51.005Z,100174.25
2022-10-31T13:15:31.559Z,100175.02
2022-10-31T13:18:49.638Z,100178.56
2022-10-31T13:21:37.123Z,100171.48
2022-10-31T13:24:11.892Z,100169.84
2022-10-31T13:26:59.808Z,100168.93
2022-10-31T13:29:43.445Z,100166.94
2022-10-31T13:32:31.640Z,100166.75
2022-10-31T13:35:06.467Z,100167.75
2022-10-31T13:37:56.465Z,100172.09
2022-10-31T13:40:46.118Z,100168.72
2022-10-31T13:43:23.751Z,100164.55
2022-10-31T13:45:55.005Z,100164.73
2022-10-31T13:48:28.335Z,100159.51
2022-10-31T13:51:08.382Z,100160.06
2022-10-31T13:53:54.336Z,100159.59
2022-10-31T13:56:31.443Z,100159.92
2022-10-31T13:59:10.941Z,100164.33
2022-10-31T14:01:48.828Z,100163.77
2022-10-31T14:04:25.608Z,100166.98
2022-10-31T14:07:00.849Z,100167.33
2022-10-31T14:09:34.826Z,100169.27
2022-10-31T14:12:28.432Z,100166.15
2022-10-31T14:15:18.923Z,100167.67
2022-10-31T14:24:56.242Z,100160.50
2022-10-31T14:27:53.699Z,100155.58
2022-10-31T14:30:27.233Z,100161.91
2022-10-31T14:33:13.009Z,100162.52
2022-10-31T14:36:00.002Z,100160.53
2022-10-31T14:39:09.609Z,100164.09
2022-10-31T14:41:54.953Z,100161.13
2022-10-31T14:44:47.859Z,100162.48
2022-10-31T14:47:49.455Z,100162.63
2022-10-31T14:50:51.735Z,100156.92
2022-10-31T14:53:30.776Z,100159.77
2022-10-31T14:56:07.070Z,100160.56
2022-10-31T14:58:58.062Z,100158.88
2022-10-31T15:02:01.156Z,100159.31
2022-10-31T15:04:37.941Z,100160.05
2022-10-31T15:07:06.157Z,100161.89
2022-10-31T15:09:39.204Z,100161.09
2022-10-31T15:12:34.333Z,100160.10
2022-10-31T15:15:22.489Z,100158.31
2022-10-31T15:17:59.544Z,100162.20
2022-10-31T15:20:33.822Z,100162.02
2022-10-31T15:23:18.249Z,100161.70
2022-10-31T15:25:48.641Z,100167.19
2022-10-31T15:28:23.859Z,100168.05
2022-10-31T15:31:16.123Z,100167.71
2022-10-31T15:33:52.009Z,100169.83
2022-10-31T15:36:30.567Z,100169.72
2022-10-31T15:39:04.431Z,100167.90
2022-10-31T15:41:38.351Z,100167.29
2022-10-31T15:44:18.066Z,100166.46
2022-10-31T15:46:57.989Z,100165.96
2022-10-31T15:49:30.699Z,100162.73
2022-10-31T15:52:03.780Z,100161.23
2022-10-31T15:54:45.703Z,100160.00
2022-10-31T15:57:17.434Z,100163.88
2022-10-31T15:59:58.305Z,100166.01
2022-10-31T16:02:31.435Z,100163.13
2022-10-31T16:05:27.893Z,100167.29
2022-10-31T16:07:57.422Z,100168.71
2022-10-31T16:10:27.160Z,100163.92
2022-10-31T16:12:55.166Z,100162.42
2022-10-31T16:15:22.366Z,100168.60
2022-10-31T16:17:51.776Z,100164.50
2022-10-31T16:20:25.718Z,100169.35
2022-10-31T16:22:54.654Z,100166.47
2022-10-31T16:25:29.638Z,100167.08
2022-10-31T16:28:06.694Z,100163.24
2022-10-31T16:30:44.018Z,100163.94
2022-10-31T16:33:26.045Z,100162.48
2022-10-31T16:36:04.155Z,100161.52
2022-10-31T16:38:41.342Z,100159.05
2022-10-31T16:41:08.505Z,100159.15
2022-10-31T16:43:35.528Z,100161.33
2022-10-31T16:46:02.716Z,100158.98
2022-10-31T16:48:29.481Z,100158.45
2022-10-31T16:50:56.324Z,100160.75
2022-10-31T16:53:23.844Z,100159.52
2022-10-31T16:56:04.377Z,100154.59
2022-10-31T16:58:35.263Z,100159.11
2022-10-31T17:01:05.325Z,100156.60
2022-10-31T17:03:32.524Z,100157.13
2022-10-31T17:06:00.239Z,100157.11
2022-10-31T17:08:28.091Z,100160.39
2022-10-31T17:10:57.945Z,100160.27
2022-10-31T17:13:28.134Z,100160.54
2022-10-31T17:15:58.031Z,100159.79
2022-10-31T17:18:27.818Z,100157.52
2022-10-31T17:20:59.194Z,100158.02
2022-10-31T17:23:26.828Z,100161.98
2022-10-31T17:25:54.088Z,100164.50
2022-10-31T17:28:21.208Z,100164.45
2022-10-31T17:30:48.830Z,100162.01
2022-10-31T17:33:17.421Z,100162.81
2022-10-31T17:35:45.382Z,100159.61
2022-10-31T17:38:13.010Z,100158.48
2022-10-31T17:40:44.476Z,100156.55
2022-10-31T17:43:12.432Z,100151.98
2022-10-31T17:45:41.575Z,100153.27
2022-10-31T17:48:12.500Z,100150.12
2022-10-31T17:50:41.056Z,100148.50
2022-10-31T17:53:08.136Z,100145.79
2022-10-31T17:55:37.333Z,100143.73
2022-10-31T17:58:13.405Z,100143.91
2022-10-31T18:00:45.882Z,100142.46
2022-10-31T18:03:17.028Z,100146.34
2022-10-31T18:06:19.240Z,100144.14
2022-10-31T18:08:52.634Z,100144.67
2022-10-31T18:11:21.544Z,100142.19
2022-10-31T18:13:55.963Z,100137.66
2022-10-31T18:16:23.399Z,100137.17
2022-10-31T18:18:52.766Z,100134.98
2022-10-31T18:21:25.717Z,100132.63
2022-10-31T18:23:58.060Z,100133.23
2022-10-31T18:26:27.174Z,100129.52
2022-10-31T18:28:54.584Z,100129.92
2022-10-31T18:31:21.848Z,100126.95
2022-10-31T18:36:24.650Z,100119.21
2022-10-31T18:38:52.144Z,100120.07
2022-10-31T18:41:19.876Z,100117.46
2022-10-31T18:43:46.926Z,100108.23
2022-10-31T18:46:16.182Z,100112.11
2022-10-31T18:48:44.550Z,100110.14
2022-10-31T18:51:14.296Z,100108.92
2022-10-31T18:53:42.327Z,100107.95
2022-10-31T18:56:10.903Z,100105.10
2022-10-31T18:58:38.579Z,100101.80
2022-10-31T19:01:11.021Z,100095.73
2022-10-31T19:03:39.012Z,100096.45
2022-10-31T19:06:07.883Z,100094.52
2022-10-31T19:08:37.427Z,100089.25
2022-10-31T19:11:11.221Z,100084.92
2022-10-31T19:13:39.412Z,100083.80
2022-10-31T19:16:11.717Z,100081.25
2022-10-31T19:18:41.120Z,100077.07
2022-10-31T19:21:11.517Z,100070.65
2022-10-31T19:23:39.301Z,100065.16
2022-10-31T19:26:06.701Z,100065.48
2022-10-31T19:28:35.713Z,100060.84
2022-10-31T19:31:03.797Z,100058.04
2022-10-31T19:33:34.991Z,100055.72
2022-10-31T19:36:14.246Z,100057.80
2022-10-31T19:38:43.768Z,100059.80
2022-10-31T19:41:17.539Z,100062.05
2022-10-31T19:43:47.072Z,100061.94
2022-10-31T19:46:22.678Z,100061.89
2022-10-31T19:49:01.392Z,100059.95
2022-10-31T19:51:28.284Z,100058.77
2022-10-31T19:53:55.119Z,100058.08
2022-10-31T19:56:25.063Z,100060.26
2022-10-31T19:58:52.084Z,100059.73
2022-10-31T20:01:21.881Z,100061.02
2022-10-31T20:03:49.783Z,100058.94
2022-10-31T20:06:26.418Z,100062.02
2022-10-31T20:08:55.856Z,100062.05
2022-10-31T20:11:24.430Z,100061.33
2022-10-31T20:13:51.452Z,100064.16
2022-10-31T20:16:18.671Z,100070.95
2022-10-31T20:18:46.660Z,100073.42
2022-10-31T20:21:19.253Z,100071.54
2022-10-31T20:23:47.254Z,100067.80
2022-10-31T20:26:18.367Z,100064.69
2022-10-31T20:28:46.404Z,100063.23
2022-10-31T20:31:21.132Z,100067.81
2022-10-31T20:33:49.281Z,100064.16
2022-10-31T20:36:20.516Z,100059.30
2022-10-31T20:38:47.721Z,100056.35
2022-10-31T20:41:14.871Z,100059.70
2022-10-31T20:43:43.095Z,100060.08
2022-10-31T20:46:15.571Z,100060.34
2022-10-31T20:48:42.529Z,100059.21
2022-10-31T20:53:49.919Z,100058.60
2022-10-31T20:56:19.398Z,100061.70
2022-10-31T20:58:46.865Z,100060.24
2022-10-31T21:01:24.747Z,100058.83
2022-10-31T21:03:52.401Z,100056.09
2022-10-31T21:06:23.988Z,100058.71
2022-10-31T21:08:51.596Z,100054.48
2022-10-31T21:11:21.604Z,100059.61
2022-10-31T21:13:49.640Z,100055.79
2022-10-31T21:16:19.773Z,100058.46
2022-10-31T21:18:48.862Z,100055.83
2022-10-31T21:21:27.549Z,100056.09
2022-10-31T21:24:08.245Z,100048.85
2022-10-31T21:26:39.232Z,100046.61
2022-10-31T21:29:07.981Z,100041.58
2022-10-31T21:31:36.926Z,100042.41
2022-10-31T21:34:04.485Z,100038.44
2022-10-31T21:36:34.101Z,100037.45
2022-10-31T21:39:03.521Z,100031.79
2022-10-31T21:41:31.001Z,100028.00
2022-10-31T21:43:58.639Z,100023.56
2022-10-31T21:46:29.703Z,100018.86
2022-10-31T21:48:57.431Z,100016.31
2022-10-31T21:51:28.784Z,100017.84
2022-10-31T21:54:16.188Z,100015.64
2022-10-31T21:56:45.274Z,100010.59
2022-10-31T21:59:35.770Z,100003.81
2022-10-31T22:02:04.180Z,99997.50
2022-10-31T22:04:33.075Z,99996.11
2022-10-31T22:07:00.621Z,99991.36
2022-10-31T22:09:28.603Z,99986.61
2022-10-31T22:11:59.236Z,99984.98
2022-10-31T22:14:33.778Z,99979.27
2022-10-31T22:17:07.331Z,99984.90
2022-10-31T22:19:39.288Z,99981.45
2022-10-31T22:22:06.441Z,99981.29
2022-10-31T22:24:42.209Z,99974.04
2022-10-31T22:27:11.603Z,99975.98
2022-10-31T22:29:41.831Z,99973.73
2022-10-31T22:32:14.769Z,99971.04
2022-10-31T22:34:53.044Z,99962.29
2022-10-31T22:37:27.039Z,99959.16
2022-10-31T22:40:13.403Z,99953.23
2022-10-31T22:42:50.647Z,99951.44
2022-10-31T22:45:26.502Z,99950.27
2022-10-31T22:48:19.465Z,99947.33
2022-10-31T22:50:50.331Z,99947.04
2022-10-31T22:53:30.517Z,99945.08
2022-10-31T22:56:08.126Z,99944.43
2022-10-31T22:58:37.508Z,99943.19
2022-10-31T23:01:16.028Z,99939.89
2022-10-31T23:03:48.442Z,99935.54
2022-10-31T23:06:21.414Z,99931.39
2022-10-31T23:08:51.175Z,99923.84
2022-10-31T23:11:40.269Z,99920.83
2022-10-31T23:14:13.873Z,99916.23
2022-10-31T23:17:00.035Z,99912.20
2022-10-31T23:19:30.031Z,99913.48
2022-10-31T23:22:07.559Z,99915.19
2022-10-31T23:24:39.164Z,99911.30
2022-10-31T23:27:15.974Z,99902.45
2022-10-31T23:29:52.509Z,99900.89
2022-10-31T23:32:25.807Z,99892.33
2022-10-31T23:35:01.568Z,99887.53
2022-10-31T23:37:34.160Z,99879.98
2022-10-31T23:40:05.642Z,99879.38
2022-10-31T23:42:34.066Z,99875.70
2022-10-31T23:45:01.257Z,99875.45
2022-10-31T23:47:34.087Z,99875.45
2022-10-31T23:50:06.387Z,99882.85
2022-10-31T23:52:37.095Z,99884.96
2022-10-31T23:55:08.656Z,99893.66
2022-10-31T23:57:36.651Z,99898.91
